Westville, Indiana
Current Conditions -  °F | °C
As of 9:56 AM on Wednesday 26 Nov 2014 (Local Time) from KVPZ Reporting Station
Overcast Overcast  
Wind Chill: 16°   Ceiling: 1300
Heat Index: 25°   Visibility: 10mi
Dew Point: 19°   Wind: 8mph
Humidity: 78%   Direction: 120°ESE
Pressure: 30.17"   Gusts: NA
Location:  41.54°N, 86.9°W
Report Text: KVPZ 261556Z AUTO 12007KT 10SM OVC013 M04/M07 A3017 RMK AO2 SLP226 T10391072 TSNO
Loading
Personal Weather Stations






























Interactive Weather Map New forecast layout! Learn more

10-Day Weather Forecast

Advertisements
Track Severe Weather on mobile